Time;durP1;ratioP1;P1;durP2;ratioP2;P2;SDS_P1;SDS_P2;PMS_P1;PMS_P2;Temp;Humidity;BMP_temperature;BMP_pressure;BME280_temperature;BME280_humidity;BME280_pressure;Samples;Min_cycle;Max_cycle;Signal;HPM_P1;HPM_P2
2023/09/27 00:02:05;;;;;;;6.03;5.63;;;12.30;99.90;;;;;;4972939;28;20219;-57
2023/09/27 00:04:34;;;;;;;6.83;6.33;;;12.40;99.90;;;;;;4976589;28;20208;-57
2023/09/27 00:07:01;;;;;;;6.77;6.17;;;12.40;99.90;;;;;;4964965;28;20553;-57
2023/09/27 00:09:28;;;;;;;5.93;5.47;;;12.40;99.90;;;;;;4955772;28;20239;-57
2023/09/27 00:11:57;;;;;;;5.63;5.27;;;12.40;99.90;;;;;;4954581;28;20283;-57
2023/09/27 00:14:24;;;;;;;5.33;5.03;;;12.40;99.90;;;;;;4963056;28;20284;-56
2023/09/27 00:16:51;;;;;;;5.23;4.83;;;12.40;99.90;;;;;;4965399;28;20220;-56
2023/09/27 00:19:18;;;;;;;5.93;5.53;;;12.30;99.90;;;;;;4964674;28;20201;-56
2023/09/27 00:21:47;;;;;;;6.80;6.27;;;12.30;99.90;;;;;;4972577;28;20211;-57
2023/09/27 00:24:14;;;;;;;6.10;5.70;;;12.40;99.90;;;;;;4976860;28;20216;-58
2023/09/27 00:26:41;;;;;;;7.33;5.90;;;12.40;99.90;;;;;;4964829;28;20620;-57
2023/09/27 00:29:08;;;;;;;4.97;4.57;;;12.30;99.90;;;;;;4972856;28;20267;-57
2023/09/27 00:31:35;;;;;;;4.90;4.60;;;12.30;99.90;;;;;;4968733;28;20209;-57
2023/09/27 00:34:02;;;;;;;5.30;4.87;;;12.30;99.90;;;;;;4966944;28;20203;-57
2023/09/27 00:36:29;;;;;;;5.05;4.65;;;12.30;99.90;;;;;;4964591;28;20580;-57
2023/09/27 00:38:57;;;;;;;4.70;4.43;;;12.20;99.90;;;;;;4972666;28;20531;-57
2023/09/27 00:41:24;;;;;;;4.33;4.13;;;12.10;99.90;;;;;;4972247;28;20215;-57
2023/09/27 00:43:51;;;;;;;4.30;4.00;;;12.10;99.90;;;;;;4966585;28;20212;-57
2023/09/27 00:46:19;;;;;;;3.87;3.67;;;12.10;99.90;;;;;;4969798;28;20572;-57
2023/09/27 00:48:47;;;;;;;5.47;5.00;;;12.00;99.90;;;;;;4951758;29;20224;-57
2023/09/27 00:51:14;;;;;;;5.57;4.73;;;12.00;99.90;;;;;;4952534;29;20689;-57
2023/09/27 00:53:43;;;;;;;5.03;4.63;;;11.90;99.90;;;;;;4964734;28;20267;-57
2023/09/27 00:56:11;;;;;;;5.60;5.30;;;11.90;99.90;;;;;;4961810;28;20275;-57
2023/09/27 00:58:39;;;;;;;5.40;4.90;;;11.90;99.90;;;;;;4961002;28;20708;-56
2023/09/27 01:01:06;;;;;;;5.20;4.90;;;11.90;99.90;;;;;;4952874;29;20677;-57
2023/09/27 01:03:34;;;;;;;6.00;5.60;;;11.90;99.90;;;;;;4963648;28;20206;-57
2023/09/27 01:06:01;;;;;;;4.73;4.50;;;11.90;99.90;;;;;;4964592;28;20200;-56
2023/09/27 01:08:29;;;;;;;4.73;4.30;;;11.90;99.90;;;;;;4971709;28;20294;-57
2023/09/27 01:10:56;;;;;;;5.00;4.60;;;11.90;99.90;;;;;;4962273;28;20199;-56
2023/09/27 01:13:25;;;;;;;4.57;4.23;;;11.90;99.90;;;;;;4974757;28;20217;-56
2023/09/27 01:15:51;;;;;;;4.50;4.30;;;11.80;99.90;;;;;;4964570;28;20199;-58
2023/09/27 01:18:18;;;;;;;5.20;4.90;;;11.80;99.90;;;;;;4972253;28;20231;-57
2023/09/27 01:20:45;;;;;;;5.67;5.17;;;11.90;99.90;;;;;;4971093;28;20222;-56
2023/09/27 01:23:14;;;;;;;6.90;5.20;;;11.90;99.90;;;;;;4967020;28;20199;-57
2023/09/27 01:25:41;;;;;;;5.27;4.87;;;11.90;99.90;;;;;;4966036;28;20256;-57
2023/09/27 01:28:09;;;;;;;4.60;4.30;;;11.90;99.90;;;;;;4964197;28;20242;-57
2023/09/27 01:47:28;;;;;;;5.67;5.30;;;11.60;99.90;;;;;;4956526;29;20210;-57
2023/09/27 01:49:55;;;;;;;4.70;4.27;;;11.50;99.90;;;;;;4956523;29;20260;-57
2023/09/27 01:52:22;;;;;;;4.90;4.40;;;11.40;99.90;;;;;;4956098;29;20287;-57
2023/09/27 01:54:49;;;;;;;4.90;4.50;;;11.40;99.90;;;;;;4958167;28;20743;-57
2023/09/27 01:57:16;;;;;;;6.37;5.13;;;11.40;99.90;;;;;;4967549;28;20229;-57
2023/09/27 01:59:43;;;;;;;6.13;5.27;;;11.40;99.90;;;;;;4975592;28;20207;-57
2023/09/27 02:02:10;;;;;;;5.30;4.90;;;11.30;99.90;;;;;;4975051;28;20207;-57
2023/09/27 02:04:38;;;;;;;4.83;4.20;;;11.30;99.90;;;;;;4974509;28;20208;-57
2023/09/27 02:07:05;;;;;;;5.30;4.90;;;11.30;99.90;;;;;;4974220;28;20237;-57
2023/09/27 02:09:32;;;;;;;4.50;4.13;;;11.30;99.90;;;;;;4959063;28;20251;-57
2023/09/27 02:11:59;;;;;;;5.00;4.70;;;11.30;99.90;;;;;;4974703;28;20253;-57
2023/09/27 02:14:26;;;;;;;4.57;4.27;;;11.20;99.90;;;;;;4975215;28;20207;-57
2023/09/27 02:16:53;;;;;;;4.80;4.50;;;11.20;99.90;;;;;;4978422;28;20262;-57
2023/09/27 02:32:50;;;;;;;5.07;4.77;;;11.00;99.90;;;;;;4960473;28;20196;-57
2023/09/27 02:35:18;;;;;;;5.23;4.77;;;11.00;99.90;;;;;;4967101;28;20203;-57
2023/09/27 02:37:45;;;;;;;5.03;4.40;;;11.00;99.90;;;;;;4974651;28;20327;-57
2023/09/27 02:40:13;;;;;;;5.27;4.87;;;11.00;99.90;;;;;;4974946;28;20202;-57
2023/09/27 02:42:41;;;;;;;4.87;4.57;;;10.90;99.90;;;;;;4974484;28;20593;-57
2023/09/27 02:45:09;;;;;;;4.60;4.30;;;10.90;99.90;;;;;;4973851;28;20201;-57
2023/09/27 02:47:36;;;;;;;5.83;4.57;;;11.00;99.90;;;;;;4966364;28;20220;-57
2023/09/27 02:50:06;;;;;;;4.47;4.17;;;10.90;99.90;;;;;;4974463;28;20254;-57
2023/09/27 02:52:33;;;;;;;4.70;4.20;;;10.90;99.90;;;;;;4974136;28;20675;-57
2023/09/27 02:55:00;;;;;;;3.83;3.63;;;10.90;99.90;;;;;;4974639;28;20630;-57
2023/09/27 02:57:27;;;;;;;3.67;3.43;;;10.80;99.90;;;;;;4973500;28;20258;-57
2023/09/27 02:59:56;;;;;;;6.40;4.07;;;10.80;99.90;;;;;;4961658;28;20299;-57
2023/09/27 03:02:23;;;;;;;5.43;4.60;;;10.70;99.90;;;;;;4954609;28;20199;-57
2023/09/27 03:04:50;;;;;;;5.13;4.80;;;10.70;99.90;;;;;;4954892;29;20216;-57
2023/09/27 03:07:19;;;;;;;5.00;4.53;;;10.70;99.90;;;;;;4955060;29;20255;-57
2023/09/27 03:09:47;;;;;;;4.00;3.77;;;10.80;99.90;;;;;;4971215;28;20208;-56
2023/09/27 03:12:14;;;;;;;4.70;4.30;;;10.80;99.90;;;;;;4964579;28;20220;-57
2023/09/27 03:28:10;;;;;;;4.43;4.07;;;10.70;99.90;;;;;;4968710;28;20217;-56
2023/09/27 03:30:37;;;;;;;4.40;4.00;;;10.70;99.90;;;;;;4969117;28;20207;-57
2023/09/27 03:33:05;;;;;;;5.43;4.93;;;10.60;99.90;;;;;;4973767;28;20199;-57
2023/09/27 03:35:32;;;;;;;4.03;3.77;;;10.70;99.90;;;;;;4973604;28;20658;-57
2023/09/27 03:37:59;;;;;;;4.63;4.33;;;10.70;99.90;;;;;;4973364;28;20647;-57
2023/09/27 04:30:42;;;;;;;5.00;4.73;;;10.20;99.90;;;;;;4972578;28;20222;-57
2023/09/27 04:33:09;;;;;;;4.13;3.83;;;10.10;99.90;;;;;;4972727;28;20299;-57
2023/09/27 04:35:35;;;;;;;4.23;3.87;;;10.10;99.90;;;;;;4972642;28;20211;-57
2023/09/27 04:38:04;;;;;;;3.87;3.27;;;10.10;99.90;;;;;;4972380;28;20607;-57
2023/09/27 04:40:31;;;;;;;5.30;4.90;;;10.10;99.90;;;;;;4972092;28;20278;-57
2023/09/27 04:42:58;;;;;;;4.97;4.70;;;10.10;99.90;;;;;;4972759;28;20207;-57
2023/09/27 04:45:25;;;;;;;5.33;5.03;;;10.00;99.90;;;;;;4972500;28;20199;-57
2023/09/27 04:47:53;;;;;;;5.57;4.70;;;10.00;99.90;;;;;;4972544;28;20212;-57
2023/09/27 04:50:20;;;;;;;4.33;4.07;;;10.00;99.90;;;;;;4974228;28;20210;-56
2023/09/27 04:52:47;;;;;;;3.90;3.70;;;10.00;99.90;;;;;;4976143;28;20206;-57
2023/09/27 04:55:15;;;;;;;5.20;4.50;;;10.00;99.90;;;;;;4978238;28;20208;-57
2023/09/27 04:57:42;;;;;;;4.87;4.43;;;10.00;99.90;;;;;;4969561;28;20315;-57
2023/09/27 05:00:18;;;;;;;5.43;4.90;;;10.10;99.90;;;;;;4969251;28;20774;-57
2023/09/27 05:02:45;;;;;;;6.73;5.80;;;10.10;99.90;;;;;;4970932;28;20238;-57
2023/09/27 05:05:14;;;;;;;6.20;5.70;;;10.10;99.90;;;;;;4971973;28;20203;-57
2023/09/27 05:07:40;;;;;;;5.73;5.33;;;10.10;99.90;;;;;;4969034;28;20278;-57
2023/09/27 05:10:08;;;;;;;5.33;4.93;;;10.10;99.90;;;;;;4970179;28;20261;-57
2023/09/27 05:12:35;;;;;;;5.77;5.30;;;10.20;99.90;;;;;;4966453;28;20309;-57
2023/09/27 05:15:02;;;;;;;7.90;6.07;;;10.20;99.90;;;;;;4966666;28;20207;-57
2023/09/27 05:17:29;;;;;;;10.40;6.57;;;10.30;99.90;;;;;;4968631;28;20262;-57
2023/09/27 05:19:56;;;;;;;6.23;5.63;;;10.30;99.90;;;;;;4968897;28;20219;-57
2023/09/27 05:22:24;;;;;;;7.20;6.30;;;10.30;99.90;;;;;;4972750;28;20197;-57
2023/09/27 05:24:51;;;;;;;9.77;6.53;;;10.40;99.90;;;;;;4976063;28;20207;-57
2023/09/27 05:27:18;;;;;;;8.17;6.83;;;10.40;99.90;;;;;;4975170;28;20216;-57
2023/09/27 05:29:46;;;;;;;12.83;8.77;;;10.40;99.90;;;;;;4971599;28;20253;-57
2023/09/27 05:32:13;;;;;;;11.50;6.73;;;10.50;99.90;;;;;;4966528;28;20200;-57
2023/09/27 05:34:42;;;;;;;8.17;6.17;;;10.40;99.90;;;;;;4971233;28;20247;-57
2023/09/27 05:37:09;;;;;;;6.07;5.63;;;10.40;99.90;;;;;;4974823;28;20308;-57
2023/09/27 05:39:37;;;;;;;6.63;5.03;;;10.50;99.90;;;;;;4967283;28;20238;-57
2023/09/27 05:42:04;;;;;;;5.50;5.00;;;10.50;99.90;;;;;;4972518;28;20201;-57
2023/09/27 05:44:31;;;;;;;5.73;5.33;;;10.50;99.90;;;;;;4973466;28;20211;-57
2023/09/27 05:46:58;;;;;;;5.40;5.10;;;10.60;99.90;;;;;;4967960;28;20218;-57
2023/09/27 05:49:25;;;;;;;5.50;5.20;;;10.60;99.90;;;;;;4973217;28;20203;-56
2023/09/27 05:51:53;;;;;;;8.30;5.17;;;10.70;99.90;;;;;;4967331;28;20211;-57
2023/09/27 05:54:20;;;;;;;5.30;4.50;;;10.80;99.90;;;;;;4974694;28;20301;-57
2023/09/27 05:56:51;;;;;;;5.43;5.03;;;10.90;99.90;;;;;;4967909;28;20611;-57
2023/09/27 05:59:19;;;;;;;6.03;5.43;;;10.80;99.90;;;;;;4974192;28;20226;-57
2023/09/27 06:01:47;;;;;;;4.43;4.23;;;10.80;99.90;;;;;;4971311;28;20744;-57
2023/09/27 06:04:14;;;;;;;5.03;4.63;;;10.90;99.90;;;;;;4974333;28;20290;-57
2023/09/27 06:06:41;;;;;;;4.63;4.23;;;11.00;99.90;;;;;;4974110;28;20210;-57
2023/09/27 06:09:09;;;;;;;7.50;5.77;;;11.10;99.90;;;;;;4972819;28;20203;-57
2023/09/27 06:11:36;;;;;;;5.10;4.40;;;11.30;99.90;;;;;;4974912;28;20274;-57
2023/09/27 06:14:09;;;;;;;5.50;4.87;;;11.60;99.90;;;;;;4970160;28;20235;-57
2023/09/27 06:16:37;;;;;;;5.30;4.90;;;12.00;99.90;;;;;;4971130;28;20442;-57
2023/09/27 06:19:04;;;;;;;5.50;3.87;;;12.30;99.90;;;;;;4974378;28;20639;-63
2023/09/27 06:21:32;;;;;;;4.77;4.37;;;12.60;99.90;;;;;;4974167;28;20240;-64
2023/09/27 06:24:00;;;;;;;3.53;3.27;;;12.70;99.90;;;;;;4973905;28;20232;-63
2023/09/27 06:26:26;;;;;;;3.60;3.40;;;12.70;99.90;;;;;;4974236;28;20231;-57
2023/09/27 06:28:54;;;;;;;3.73;3.43;;;12.70;99.90;;;;;;4974401;28;20283;-57
2023/09/27 06:31:23;;;;;;;9.13;4.27;;;12.80;99.90;;;;;;4974059;28;20196;-57
2023/09/27 06:33:51;;;;;;;4.77;4.37;;;12.80;99.90;;;;;;4964293;28;20267;-58
2023/09/27 06:36:20;;;;;;;3.90;3.57;;;12.90;99.90;;;;;;4977551;28;20204;-67
2023/09/27 06:38:47;;;;;;;4.97;4.57;;;13.00;99.90;;;;;;4973937;28;20228;-62
2023/09/27 06:41:15;;;;;;;4.37;3.40;;;13.00;99.90;;;;;;4974027;28;20203;-60
2023/09/27 06:43:42;;;;;;;5.13;3.70;;;13.00;99.90;;;;;;4971169;28;20673;-63
2023/09/27 06:46:12;;;;;;;4.93;4.53;;;13.10;99.90;;;;;;4974375;28;20212;-63
2023/09/27 06:48:41;;;;;;;5.60;4.97;;;13.20;99.90;;;;;;4972595;28;20732;-62
2023/09/27 06:51:11;;;;;;;8.57;4.70;;;13.30;99.90;;;;;;4973726;28;20674;-62
2023/09/27 06:53:38;;;;;;;5.00;4.60;;;13.40;99.90;;;;;;4974454;28;20236;-62
2023/09/27 06:56:05;;;;;;;6.60;4.20;;;13.30;99.90;;;;;;4980171;28;20593;-61
2023/09/27 06:58:32;;;;;;;6.53;4.20;;;13.30;99.90;;;;;;4970966;28;20224;-63
2023/09/27 07:00:59;;;;;;;5.13;4.17;;;13.40;99.90;;;;;;4967614;28;20257;-62
2023/09/27 07:03:29;;;;;;;3.87;3.67;;;13.40;99.90;;;;;;4972641;28;20206;-62
2023/09/27 07:05:57;;;;;;;3.47;3.17;;;13.50;99.90;;;;;;4976596;28;20210;-61
2023/09/27 07:08:24;;;;;;;4.00;3.70;;;13.60;99.90;;;;;;4964885;28;20221;-62
2023/09/27 07:10:51;;;;;;;5.73;3.33;;;13.70;99.90;;;;;;4971205;28;20208;-64
2023/09/27 07:13:18;;;;;;;3.90;3.60;;;13.60;99.90;;;;;;4968996;28;20277;-64
2023/09/27 07:15:46;;;;;;;4.13;3.27;;;13.60;99.90;;;;;;4966082;28;20200;-65
2023/09/27 07:18:13;;;;;;;3.83;3.43;;;13.60;99.90;;;;;;4973696;28;20599;-65
2023/09/27 07:20:42;;;;;;;4.27;3.37;;;13.60;99.90;;;;;;4975037;28;20283;-64
2023/09/27 07:23:14;;;;;;;3.23;2.93;;;13.60;99.90;;;;;;4980822;28;20204;-63
2023/09/27 07:25:42;;;;;;;3.53;3.20;;;13.70;99.90;;;;;;4978917;28;20211;-63
2023/09/27 07:28:10;;;;;;;2.93;2.73;;;13.80;99.90;;;;;;4973526;28;20220;-65
2023/09/27 07:30:40;;;;;;;2.53;2.33;;;13.90;99.90;;;;;;4972911;28;20200;-63
2023/09/27 07:33:10;;;;;;;2.80;2.60;;;14.10;99.90;;;;;;4974037;28;20263;-63
2023/09/27 07:35:43;;;;;;;2.93;2.70;;;14.20;99.90;;;;;;4974334;28;20266;-63
2023/09/27 07:38:11;;;;;;;2.70;2.13;;;14.40;99.90;;;;;;4972153;28;20605;-63
2023/09/27 07:40:41;;;;;;;3.33;2.37;;;14.90;99.90;;;;;;4971497;28;20612;-63
2023/09/27 07:43:08;;;;;;;3.20;3.00;;;15.20;99.90;;;;;;4974129;28;20291;-57
2023/09/27 07:45:39;;;;;;;2.73;2.53;;;15.50;99.90;;;;;;4973058;28;20200;-57
2023/09/27 07:48:06;;;;;;;3.03;2.30;;;15.90;99.90;;;;;;4970715;28;20279;-57
2023/09/27 07:50:39;;;;;;;2.90;1.80;;;16.40;99.90;;;;;;4970390;28;20251;-57
2023/09/27 07:53:08;;;;;;;9.30;2.50;;;16.60;99.90;;;;;;4970258;28;20205;-56
2023/09/27 07:55:43;;;;;;;3.47;2.70;;;16.60;99.90;;;;;;4964385;28;20208;-56
2023/09/27 07:58:12;;;;;;;5.27;3.57;;;16.60;99.90;;;;;;4969602;28;20216;-56
2023/09/27 08:00:40;;;;;;;3.53;3.23;;;16.50;99.90;;;;;;4970362;28;20665;-56
2023/09/27 08:03:08;;;;;;;3.60;3.30;;;16.50;99.90;;;;;;4973218;28;20665;-56
2023/09/27 08:05:42;;;;;;;4.27;3.73;;;16.50;99.90;;;;;;4972676;28;20694;-56
2023/09/27 08:08:10;;;;;;;4.40;4.00;;;16.60;99.90;;;;;;4972355;28;20215;-56
2023/09/27 08:10:43;;;;;;;5.70;4.53;;;16.70;99.90;;;;;;4971683;28;20196;-56
2023/09/27 08:13:12;;;;;;;5.13;4.73;;;16.80;99.90;;;;;;4973281;28;20228;-56
2023/09/27 08:15:40;;;;;;;5.70;3.70;;;16.90;99.90;;;;;;4957164;28;20292;-56
2023/09/27 08:18:07;;;;;;;4.87;4.37;;;16.90;99.90;;;;;;4966800;28;20221;-56
2023/09/27 08:20:37;;;;;;;11.23;7.30;;;17.00;99.90;;;;;;4969705;28;20263;-56
2023/09/27 08:23:04;;;;;;;6.07;5.47;;;17.00;99.90;;;;;;4965834;28;20197;-56
2023/09/27 08:25:31;;;;;;;10.10;5.73;;;17.00;99.90;;;;;;4966930;28;20197;-56
2023/09/27 08:28:01;;;;;;;7.60;5.13;;;17.30;99.90;;;;;;4972389;28;20220;-56
2023/09/27 08:30:28;;;;;;;5.83;5.23;;;17.60;99.90;;;;;;4972041;28;20700;-56
2023/09/27 08:32:55;;;;;;;4.83;4.37;;;17.70;99.90;;;;;;4972333;28;20283;-56
2023/09/27 08:35:22;;;;;;;5.53;5.03;;;18.10;99.90;;;;;;4973301;28;20204;-56
2023/09/27 08:37:49;;;;;;;8.30;5.00;;;18.20;99.90;;;;;;4972081;28;20236;-56
2023/09/27 08:40:16;;;;;;;6.00;5.50;;;18.20;99.90;;;;;;4972124;28;20272;-56
2023/09/27 08:42:44;;;;;;;6.83;6.27;;;18.70;99.90;;;;;;4971806;28;20672;-56
2023/09/27 08:45:15;;;;;;;9.43;8.53;;;19.00;99.90;;;;;;4968322;28;20241;-56
2023/09/27 08:47:44;;;;;;;7.70;7.17;;;19.50;99.90;;;;;;4970948;28;20228;-56
2023/09/27 08:50:13;;;;;;;7.73;6.77;;;19.70;99.90;;;;;;4972008;28;20204;-56
2023/09/27 08:52:43;;;;;;;7.10;6.60;;;20.10;99.90;;;;;;4974405;28;20208;-56
2023/09/27 08:55:12;;;;;;;8.33;7.40;;;20.10;99.90;;;;;;4972089;28;20212;-56
2023/09/27 08:57:45;;;;;;;8.60;7.83;;;19.80;99.90;;;;;;4973147;28;20727;-56
2023/09/27 09:00:19;;;;;;;8.53;7.93;;;19.80;99.90;;;;;;4975462;28;20319;-56
2023/09/27 09:02:50;;;;;;;8.67;8.00;;;19.90;99.90;;;;;;4973802;28;20300;-56
2023/09/27 09:05:19;;;;;;;10.20;9.40;;;20.30;99.90;;;;;;4971203;28;20201;-56
2023/09/27 09:07:46;;;;;;;9.23;8.47;;;20.30;99.90;;;;;;4974940;28;20226;-56
2023/09/27 09:10:14;;;;;;;10.57;9.43;;;21.10;99.90;;;;;;4975945;28;20255;-57
2023/09/27 09:12:42;;;;;;;9.73;8.93;;;21.60;99.90;;;;;;4975314;28;20212;-56
2023/09/27 09:15:14;;;;;;;9.13;8.33;;;22.10;99.90;;;;;;4971336;28;20205;-57
2023/09/27 09:17:52;;;;;;;8.77;7.93;;;22.60;99.90;;;;;;4974430;28;20299;-57
2023/09/27 09:20:26;;;;;;;7.27;6.53;;;23.30;99.90;;;;;;4975690;28;20228;-57
2023/09/27 09:22:54;;;;;;;8.50;7.53;;;23.80;99.90;;;;;;4975427;28;20303;-56
2023/09/27 09:25:23;;;;;;;9.00;8.17;;;24.50;99.90;;;;;;4969540;28;20213;-57
2023/09/27 09:28:03;;;;;;;9.23;8.33;;;24.80;99.90;;;;;;4975197;28;20292;-57
2023/09/27 09:30:41;;;;;;;9.43;8.73;;;24.40;99.90;;;;;;4975240;28;20267;-57
2023/09/27 09:33:16;;;;;;;8.77;8.10;;;24.30;99.90;;;;;;4975366;28;20259;-57
2023/09/27 09:35:43;;;;;;;9.57;8.80;;;24.40;99.90;;;;;;4965404;28;20204;-57
2023/09/27 09:38:10;;;;;;;10.57;9.10;;;25.20;99.90;;;;;;4974968;28;20224;-56
2023/09/27 09:40:52;;;;;;;10.20;9.27;;;25.50;99.90;;;;;;4973015;28;20228;-57
2023/09/27 09:43:29;;;;;;;4.93;4.63;;;25.70;99.90;;;;;;4967448;28;20300;-57
2023/09/27 09:45:57;;;;;;;7.20;6.63;;;25.80;99.90;;;;;;4963844;28;20201;-57
2023/09/27 09:48:28;;;;;;;9.23;8.53;;;26.00;99.90;;;;;;4963180;28;20263;-57
2023/09/27 09:51:03;;;;;;;6.80;6.40;;;26.20;99.90;;;;;;4968549;28;20196;-56
2023/09/27 09:53:30;;;;;;;8.87;7.43;;;26.10;99.90;;;;;;4967821;28;20227;-56
2023/09/27 09:56:00;;;;;;;6.63;6.07;;;25.60;99.90;;;;;;4967103;28;20255;-57
2023/09/27 09:58:36;;;;;;;7.63;7.00;;;25.80;99.90;;;;;;4973894;28;20236;-56
2023/09/27 10:01:04;;;;;;;7.30;6.87;;;26.00;99.90;;;;;;4970147;28;20244;-57
2023/09/27 10:03:35;;;;;;;7.23;6.80;;;25.50;99.90;;;;;;4972145;28;20576;-57
2023/09/27 10:06:04;;;;;;;7.00;6.50;;;25.80;99.90;;;;;;4966885;28;20201;-57
2023/09/27 10:08:34;;;;;;;6.47;6.07;;;25.90;99.90;;;;;;4974893;28;20224;-57
2023/09/27 10:11:03;;;;;;;6.53;6.13;;;26.20;99.90;;;;;;4969097;28;20550;-57
2023/09/27 10:13:33;;;;;;;5.20;4.90;;;26.30;99.90;;;;;;4972228;28;20290;-57
2023/09/27 10:16:01;;;;;;;5.90;5.43;;;26.20;99.90;;;;;;4967023;28;20196;-57
2023/09/27 10:18:38;;;;;;;5.57;5.27;;;26.20;99.90;;;;;;4974758;28;20306;-56
2023/09/27 10:21:07;;;;;;;4.97;4.67;;;25.90;99.90;;;;;;4968068;28;20225;-57
2023/09/27 10:23:35;;;;;;;5.50;5.18;;;25.70;99.90;;;;;;4970447;28;20480;-64
2023/09/27 10:26:18;;;;;;;4.60;4.30;;;25.60;99.90;;;;;;4966330;28;20633;-64
2023/09/27 10:29:12;;;;;;;3.70;3.57;;;25.60;99.90;;;;;;4974519;28;20260;-67
2023/09/27 10:32:21;;;;;;;4.17;3.80;;;25.50;99.90;;;;;;4970485;28;20262;-59
2023/09/27 10:34:51;;;;;;;3.70;3.50;;;25.90;99.90;;;;;;4978140;28;20576;-59
2023/09/27 10:37:59;;;;;;;3.37;3.17;;;26.00;99.90;;;;;;4973683;28;20690;-59
2023/09/27 10:40:26;;;;;;;3.83;3.63;;;25.00;99.90;;;;;;4973750;28;20665;-59
2023/09/27 10:42:55;;;;;;;2.93;2.63;;;24.60;99.90;;;;;;4970862;28;20201;-59
2023/09/27 10:45:22;;;;;;;3.67;3.47;;;24.40;99.90;;;;;;4973388;28;20640;-59
2023/09/27 10:47:50;;;;;;;4.17;3.93;;;24.40;99.90;;;;;;4973046;28;20220;-59
2023/09/27 10:50:29;;;;;;;3.40;3.10;;;24.30;99.90;;;;;;4980116;28;20231;-59
2023/09/27 10:52:56;;;;;;;2.87;2.67;;;23.80;99.90;;;;;;4966138;28;20299;-67
2023/09/27 10:55:23;;;;;;;2.60;2.50;;;23.50;99.90;;;;;;4972874;28;20209;-66
2023/09/27 10:57:51;;;;;;;2.47;2.37;;;23.30;99.90;;;;;;4973331;28;20223;-66
2023/09/27 11:00:21;;;;;;;6.33;2.50;;;23.10;99.90;;;;;;4973301;28;20221;-66
2023/09/27 11:02:48;;;;;;;2.77;2.60;;;23.00;99.90;;;;;;4972972;28;20692;-66
2023/09/27 11:05:15;;;;;;;3.63;3.43;;;22.90;99.90;;;;;;4973714;28;20200;-66
2023/09/27 11:07:48;;;;;;;3.17;2.87;;;22.70;99.90;;;;;;4971113;28;20233;-67
2023/09/27 11:10:35;;;;;;;2.43;2.23;;;22.60;99.90;;;;;;4968141;28;20267;-66
2023/09/27 11:13:07;;;;;;;2.50;2.40;;;22.60;99.90;;;;;;4970043;28;20207;-67
2023/09/27 11:15:34;;;;;;;3.67;2.63;;;22.80;99.90;;;;;;4973476;28;20231;-67
2023/09/27 11:18:01;;;;;;;3.20;2.70;;;22.90;99.90;;;;;;4972938;28;20228;-67
2023/09/27 11:20:28;;;;;;;2.10;2.00;;;22.90;99.90;;;;;;4972728;28;20224;-65
2023/09/27 11:23:01;;;;;;;3.20;3.00;;;23.00;99.90;;;;;;4973140;28;20209;-67
2023/09/27 11:25:28;;;;;;;2.73;2.53;;;23.00;99.90;;;;;;4980129;28;20624;-67
2023/09/27 11:27:56;;;;;;;2.80;2.60;;;23.00;99.90;;;;;;4972898;28;20221;-65
2023/09/27 11:30:34;;;;;;;2.93;2.83;;;23.00;99.90;;;;;;4972942;28;20201;-66
2023/09/27 11:33:04;;;;;;;2.67;2.43;;;22.70;99.90;;;;;;4965980;28;20729;-63
2023/09/27 11:35:35;;;;;;;2.93;2.77;;;22.60;99.90;;;;;;4979822;28;20231;-63
2023/09/27 11:38:12;;;;;;;2.37;2.27;;;22.60;99.90;;;;;;4972633;28;20307;-64
2023/09/27 11:40:41;;;;;;;2.77;2.50;;;22.70;99.90;;;;;;4972290;28;20287;-66
2023/09/27 11:43:08;;;;;;;2.63;2.43;;;22.70;99.90;;;;;;4974643;28;20251;-64
2023/09/27 11:45:46;;;;;;;2.47;2.33;;;22.60;99.90;;;;;;4977189;28;20228;-66
2023/09/27 11:48:13;;;;;;;2.10;1.90;;;22.60;99.90;;;;;;4972549;28;20299;-64
2023/09/27 11:50:40;;;;;;;2.47;2.27;;;22.50;99.90;;;;;;4971990;28;20621;-64
2023/09/27 11:53:08;;;;;;;2.40;2.30;;;22.50;99.90;;;;;;4976334;28;20204;-67
2023/09/27 11:55:41;;;;;;;1.83;1.77;;;22.50;99.90;;;;;;4971586;28;20609;-65
2023/09/27 11:58:09;;;;;;;5.03;2.17;;;22.40;99.90;;;;;;4978446;28;20255;-66
2023/09/27 12:00:39;;;;;;;1.97;1.60;;;22.30;99.90;;;;;;4971734;28;20781;-66
2023/09/27 12:03:06;;;;;;;1.20;1.20;;;22.30;99.90;;;;;;4976161;28;20228;-64
2023/09/27 12:05:38;;;;;;;1.57;1.20;;;22.20;99.90;;;;;;4972045;28;20208;-69
2023/09/27 12:08:05;;;;;;;1.97;1.90;;;22.20;99.90;;;;;;4971918;28;20322;-66
2023/09/27 12:10:32;;;;;;;1.77;1.63;;;22.20;99.90;;;;;;4971971;28;20235;-66
2023/09/27 12:13:01;;;;;;;2.33;2.10;;;22.10;99.90;;;;;;4975633;28;20209;-66
2023/09/27 12:15:28;;;;;;;1.87;1.73;;;22.10;99.90;;;;;;4964292;28;20288;-64
2023/09/27 12:17:56;;;;;;;2.07;1.97;;;22.10;99.90;;;;;;4965762;28;20230;-65
2023/09/27 12:20:27;;;;;;;1.37;1.37;;;22.10;99.90;;;;;;4972087;28;20302;-64
2023/09/27 12:22:54;;;;;;;2.13;1.93;;;22.00;99.90;;;;;;4967507;28;20208;-65
2023/09/27 12:25:22;;;;;;;1.63;1.47;;;22.00;99.90;;;;;;4977267;28;20243;-62
2023/09/27 12:27:49;;;;;;;2.20;2.10;;;22.00;99.90;;;;;;4969525;28;20312;-63
2023/09/27 12:30:18;;;;;;;4.20;2.63;;;22.10;99.90;;;;;;4968383;28;20284;-63
2023/09/27 12:32:45;;;;;;;2.60;2.47;;;22.20;99.90;;;;;;4971357;28;20673;-63
2023/09/27 12:35:12;;;;;;;2.63;2.53;;;22.20;99.90;;;;;;4972210;28;20196;-63
2023/09/27 12:37:39;;;;;;;2.90;2.70;;;22.30;99.90;;;;;;4976963;28;20663;-63
2023/09/27 12:40:07;;;;;;;3.07;2.80;;;22.20;99.90;;;;;;4971180;28;20197;-65
2023/09/27 12:42:34;;;;;;;4.27;3.97;;;22.20;99.90;;;;;;4971039;28;20215;-67
2023/09/27 12:45:03;;;;;;;4.97;4.67;;;22.10;99.90;;;;;;4971899;28;20207;-67
2023/09/27 12:47:32;;;;;;;6.13;5.53;;;22.20;99.90;;;;;;4971491;28;20224;-65
2023/09/27 12:50:02;;;;;;;4.77;4.47;;;22.20;99.90;;;;;;4971790;28;20211;-67
2023/09/27 12:52:29;;;;;;;4.67;4.23;;;22.20;99.90;;;;;;4971091;28;20215;-64
2023/09/27 12:54:56;;;;;;;6.30;5.67;;;22.10;99.90;;;;;;4971634;28;20552;-62
2023/09/27 12:57:24;;;;;;;6.20;5.60;;;22.00;99.90;;;;;;4970888;28;20221;-66
2023/09/27 12:59:51;;;;;;;7.07;6.43;;;21.90;99.90;;;;;;4978230;28;20208;-64
2023/09/27 13:02:18;;;;;;;5.47;5.10;;;21.80;99.90;;;;;;4977024;28;20354;-63
2023/09/27 13:04:47;;;;;;;7.07;6.43;;;21.70;99.90;;;;;;4971359;28;20263;-66
2023/09/27 13:07:14;;;;;;;11.00;10.10;;;21.60;99.90;;;;;;4971347;28;20224;-64
2023/09/27 13:09:41;;;;;;;12.33;11.17;;;21.60;99.90;;;;;;4971537;28;20693;-64
2023/09/27 13:12:08;;;;;;;15.83;14.40;;;21.60;99.90;;;;;;4974865;28;20204;-65
2023/09/27 13:14:35;;;;;;;12.87;11.70;;;21.60;99.90;;;;;;4973662;28;20204;-67
2023/09/27 13:17:02;;;;;;;15.00;13.60;;;21.60;99.90;;;;;;4971691;28;20256;-64
2023/09/27 13:19:29;;;;;;;14.30;12.87;;;21.40;99.90;;;;;;4971644;28;20266;-63
2023/09/27 13:21:59;;;;;;;15.13;13.83;;;21.50;99.90;;;;;;4971133;28;20224;-65
2023/09/27 13:24:26;;;;;;;16.20;14.70;;;21.40;99.90;;;;;;4971399;28;20648;-64
2023/09/27 13:26:54;;;;;;;14.43;13.00;;;21.20;99.90;;;;;;4971281;28;20201;-66
2023/09/27 13:29:20;;;;;;;14.87;13.37;;;21.00;99.90;;;;;;4970480;28;20264;-69
2023/09/27 13:31:49;;;;;;;14.93;13.43;;;21.00;99.90;;;;;;4969054;28;20204;-69
2023/09/27 13:34:16;;;;;;;13.70;12.40;;;21.00;99.90;;;;;;4970696;28;20262;-64
2023/09/27 13:36:43;;;;;;;13.13;11.90;;;21.00;99.90;;;;;;4970221;28;20209;-68
2023/09/27 13:39:14;;;;;;;12.80;11.80;;;20.90;99.90;;;;;;4981197;28;20254;-67
2023/09/27 13:41:42;;;;;;;14.97;13.33;;;20.80;99.90;;;;;;4976128;28;20740;-68
2023/09/27 13:44:10;;;;;;;15.83;14.27;;;20.80;99.90;;;;;;4974845;28;20283;-64
2023/09/27 13:46:40;;;;;;;12.63;11.43;;;20.90;99.90;;;;;;4974017;28;20208;-63
2023/09/27 13:49:07;;;;;;;13.00;11.87;;;20.90;99.90;;;;;;4974593;28;20207;-63
2023/09/27 13:51:35;;;;;;;14.10;12.53;;;20.90;99.90;;;;;;4971802;28;20208;-66
2023/09/27 13:54:02;;;;;;;12.27;11.23;;;20.80;99.90;;;;;;4976997;28;20661;-67
2023/09/27 13:56:31;;;;;;;16.70;12.43;;;20.80;99.90;;;;;;4976836;28;20208;-68
2023/09/27 13:58:59;;;;;;;12.43;10.63;;;20.70;99.90;;;;;;4973996;28;20627;-64
2023/09/27 14:01:26;;;;;;;12.63;11.43;;;20.60;99.90;;;;;;4974763;28;20228;-62
2023/09/27 14:03:53;;;;;;;11.00;10.10;;;20.70;99.90;;;;;;4974898;28;20196;-62
2023/09/27 14:06:20;;;;;;;9.17;8.43;;;20.60;99.90;;;;;;4974657;28;20362;-64
2023/09/27 14:08:48;;;;;;;9.53;8.73;;;20.60;99.90;;;;;;4974179;28;20723;-62
2023/09/27 14:11:15;;;;;;;9.47;8.57;;;20.70;99.90;;;;;;4973954;28;20698;-64
2023/09/27 14:13:45;;;;;;;10.00;9.10;;;20.70;99.90;;;;;;4973457;28;20216;-66
2023/09/27 14:16:12;;;;;;;9.90;8.83;;;20.70;99.90;;;;;;4980249;28;20200;-65
2023/09/27 14:18:39;;;;;;;9.37;8.67;;;20.80;99.90;;;;;;4971743;28;20701;-65
2023/09/27 14:21:07;;;;;;;11.90;9.70;;;20.80;99.90;;;;;;4973712;28;20275;-66
2023/09/27 14:23:34;;;;;;;10.83;9.87;;;20.80;99.90;;;;;;4973839;28;20224;-66
2023/09/27 14:26:02;;;;;;;9.30;8.50;;;20.80;99.90;;;;;;4974365;28;20251;-66
2023/09/27 14:28:29;;;;;;;8.27;7.67;;;20.70;99.90;;;;;;4973029;28;20225;-64